Sunday, December 15, 2019, 7:19 AM GMT
Back to Local

CWEW, L'Assomption

Location: , , Canada Lat: 45.817
Local Time: 7:19 AM GMT ( 7:19 GMT) Lon: -73.433
Time Zone: GMT Elev: 68 ft

Show me the last for .
Show Coded

Time T Td Feel RH Dir Speed Gust Alt SLP Vis Weather Sky Remarks
2019-12-15 07:00 34 32 22 92 220° 15 23 - 28.96 0 Peak wind: 25 mph (22 kts) from 210° at 25 min
2019-12-15 06:00 34 32 21 89 210° 16 26 - 28.94 0 Peak wind: 27 mph (24 kts) from 210° at 44 min
2019-12-15 05:00 36 35 25 95 220° 15 23 - 28.92 0 Peak wind: 24 mph (21 kts) from 240° at 46 min
2019-12-15 04:00 36 36 30 97 230° 8 - - 28.93 0 None
2019-12-15 03:00 37 36 - 97 340° 1 - - 28.91 0 None
2019-12-15 02:00 37 36 31 97 30° 7 - - 28.93 0 Pressure falling rapidly
2019-12-15 01:00 37 36 31 97 20° 8 - - 28.99 0 Pressure falling rapidly
2019-12-15 00:00 37 36 30 97 30° 9 - - 29.05 0 Pressure falling rapidly
2019-12-14 23:00 37 36 31 97 30° 7 - - 29.12 0 None
2019-12-14 22:00 37 36 31 95 30° 7 - - 29.17 0 None
2019-12-14 21:00 37 36 31 95 30° 8 - - 29.22 0 Pressure falling rapidly
2019-12-14 20:00 37 36 31 95 30° 8 - - 29.29 0 None
2019-12-14 19:00 37 36 30 95 30° 9 - - 29.33 0 Pressure falling rapidly
2019-12-14 18:00 35 35 24 102 30° 8 17 - 29.41 0 Pressure falling rapidly
2019-12-14 17:00 35 34 25 95 30° 10 18 - 29.48 0 Pressure falling rapidly
2019-12-14 16:00 35 34 24 97 20° 10 18 - 29.56 0 Pressure falling rapidly
2019-12-14 15:00 34 34 24 97 20° 9 17 - 29.64 0 None
2019-12-14 14:00 34 33 29 97 30° 6 - - 29.69 0 Pressure falling rapidly
2019-12-14 13:00 34 33 28 97 30° 7 - - 29.75 0 None
2019-12-14 12:00 33 33 29 98 20° 5 - - 29.80 0 None
2019-12-14 11:00 31 32 28 101 30° 3 - - 29.85 0 None
2019-12-14 10:00 32 32 27 99 30° 5 - - 29.89 0 None
2019-12-14 09:00 32 31 26 97 20° 6 - - 29.94 0 None
2019-12-14 08:00 31 30 26 97 10° 5 - - 29.98 0 None

Support USWX by starting your Amazon purchase here.